Jask, Iran
Current Conditions -  °F | °C
As of 1:00 AM on Friday 28 Nov 2014 (Local Time) from OIZJ Reporting Station
NA  
Wind Chill: 24°   Ceiling: NA
Heat Index: 24°   Visibility: NA
Dew Point: 19°   Wind: 7mph
Humidity: 73%   Direction: 320°NW
Pressure: 29.85"   Gusts: NA
Location:  25.65°N, 57.78°E
Report Text: OIZJ 272200Z AUTO 32006KT //// // ////// 24/19 Q1011
Loading
Personal Weather Stations






























Interactive Weather Map New forecast layout! Learn more

10-Day Weather Forecast

Advertisements
Track Severe Weather on mobile